sensor_id;sensor_type;location;lat;lon;timestamp;P1;durP1;ratioP1;P2;durP2;ratioP2
75429;SDS011;64127;51.488;5.462;2022-12-07T00:06:29;8.33;;;7.53;;
75429;SDS011;64127;51.488;5.462;2022-12-07T00:09:06;8.30;;;7.40;;
75429;SDS011;64127;51.488;5.462;2022-12-07T00:11:42;8.00;;;7.23;;
75429;SDS011;64127;51.488;5.462;2022-12-07T00:14:16;8.13;;;7.33;;
75429;SDS011;64127;51.488;5.462;2022-12-07T00:16:50;9.23;;;7.47;;
75429;SDS011;64127;51.488;5.462;2022-12-07T00:19:23;7.87;;;7.07;;
75429;SDS011;64127;51.488;5.462;2022-12-07T00:21:54;9.90;;;7.57;;
75429;SDS011;64127;51.488;5.462;2022-12-07T00:24:26;8.20;;;7.40;;
75429;SDS011;64127;51.488;5.462;2022-12-07T00:26:58;8.67;;;7.77;;
75429;SDS011;64127;51.488;5.462;2022-12-07T00:29:30;8.43;;;7.63;;
75429;SDS011;64127;51.488;5.462;2022-12-07T00:32:03;8.83;;;7.80;;
75429;SDS011;64127;51.488;5.462;2022-12-07T00:34:35;9.53;;;8.30;;
75429;SDS011;64127;51.488;5.462;2022-12-07T00:37:07;9.03;;;8.07;;
75429;SDS011;64127;51.488;5.462;2022-12-07T00:39:39;8.47;;;7.70;;
75429;SDS011;64127;51.488;5.462;2022-12-07T00:42:11;8.83;;;7.93;;
75429;SDS011;64127;51.488;5.462;2022-12-07T00:44:43;8.90;;;8.00;;
75429;SDS011;64127;51.488;5.462;2022-12-07T00:47:15;9.50;;;8.17;;
75429;SDS011;64127;51.488;5.462;2022-12-07T00:49:47;8.87;;;8.00;;
75429;SDS011;64127;51.488;5.462;2022-12-07T00:52:18;10.50;;;8.10;;
75429;SDS011;64127;51.488;5.462;2022-12-07T00:54:50;8.73;;;7.30;;
75429;SDS011;64127;51.488;5.462;2022-12-07T00:57:22;9.83;;;7.57;;
75429;SDS011;64127;51.488;5.462;2022-12-07T00:59:54;8.57;;;7.77;;
75429;SDS011;64127;51.488;5.462;2022-12-07T01:02:29;11.53;;;7.77;;
75429;SDS011;64127;51.488;5.462;2022-12-07T01:21:41;7.83;;;6.87;;
75429;SDS011;64127;51.488;5.462;2022-12-07T01:24:13;8.23;;;6.50;;
75429;SDS011;64127;51.488;5.462;2022-12-07T01:26:45;7.30;;;6.60;;
75429;SDS011;64127;51.488;5.462;2022-12-07T01:29:21;7.70;;;7.00;;
75429;SDS011;64127;51.488;5.462;2022-12-07T01:31:53;8.33;;;7.40;;
75429;SDS011;64127;51.488;5.462;2022-12-07T01:38:36;7.60;;;6.50;;
75429;SDS011;64127;51.488;5.462;2022-12-07T01:41:08;8.13;;;6.57;;
75429;SDS011;64127;51.488;5.462;2022-12-07T01:46:57;7.13;;;6.27;;
75429;SDS011;64127;51.488;5.462;2022-12-07T01:49:46;7.10;;;6.50;;
75429;SDS011;64127;51.488;5.462;2022-12-07T01:52:21;10.23;;;6.57;;
75429;SDS011;64127;51.488;5.462;2022-12-07T01:55:00;7.33;;;6.63;;
75429;SDS011;64127;51.488;5.462;2022-12-07T01:57:42;7.63;;;6.83;;
75429;SDS011;64127;51.488;5.462;2022-12-07T02:00:20;7.13;;;6.53;;
75429;SDS011;64127;51.488;5.462;2022-12-07T02:05:31;7.73;;;6.70;;
75429;SDS011;64127;51.488;5.462;2022-12-07T02:08:05;10.67;;;6.93;;
75429;SDS011;64127;51.488;5.462;2022-12-07T02:10:39;7.73;;;6.40;;
75429;SDS011;64127;51.488;5.462;2022-12-07T02:13:33;7.23;;;6.53;;
75429;SDS011;64127;51.488;5.462;2022-12-07T02:28:01;7.00;;;6.40;;
75429;SDS011;64127;51.488;5.462;2022-12-07T02:30:46;7.07;;;6.33;;
75429;SDS011;64127;51.488;5.462;2022-12-07T02:33:26;8.20;;;6.10;;
75429;SDS011;64127;51.488;5.462;2022-12-07T02:38:58;6.97;;;5.93;;
75429;SDS011;64127;51.488;5.462;2022-12-07T02:41:49;6.93;;;5.97;;
75429;SDS011;64127;51.488;5.462;2022-12-07T02:44:29;8.67;;;6.67;;
75429;SDS011;64127;51.488;5.462;2022-12-07T02:47:05;6.90;;;6.20;;
75429;SDS011;64127;51.488;5.462;2022-12-07T02:49:42;7.03;;;6.33;;
75429;SDS011;64127;51.488;5.462;2022-12-07T02:52:15;6.40;;;5.80;;
75429;SDS011;64127;51.488;5.462;2022-12-07T02:54:47;6.43;;;5.90;;
75429;SDS011;64127;51.488;5.462;2022-12-07T03:00:11;7.27;;;5.50;;
75429;SDS011;64127;51.488;5.462;2022-12-07T03:03:03;8.50;;;5.47;;
75429;SDS011;64127;51.488;5.462;2022-12-07T03:06:00;6.17;;;5.57;;
75429;SDS011;64127;51.488;5.462;2022-12-07T03:08:51;6.17;;;5.57;;
75429;SDS011;64127;51.488;5.462;2022-12-07T03:11:57;5.97;;;5.37;;
75429;SDS011;64127;51.488;5.462;2022-12-07T03:14:47;6.77;;;5.40;;
75429;SDS011;64127;51.488;5.462;2022-12-07T03:17:31;6.10;;;5.50;;
75429;SDS011;64127;51.488;5.462;2022-12-07T03:20:09;6.63;;;5.63;;
75429;SDS011;64127;51.488;5.462;2022-12-07T03:22:47;7.40;;;5.17;;
75429;SDS011;64127;51.488;5.462;2022-12-07T03:25:20;6.43;;;5.57;;
75429;SDS011;64127;51.488;5.462;2022-12-07T03:27:54;6.13;;;5.53;;
75429;SDS011;64127;51.488;5.462;2022-12-07T03:30:42;6.13;;;4.97;;
75429;SDS011;64127;51.488;5.462;2022-12-07T03:33:24;6.30;;;5.37;;
75429;SDS011;64127;51.488;5.462;2022-12-07T03:36:56;7.63;;;5.40;;
75429;SDS011;64127;51.488;5.462;2022-12-07T03:42:01;5.93;;;5.37;;
75429;SDS011;64127;51.488;5.462;2022-12-07T03:44:37;5.70;;;4.80;;
75429;SDS011;64127;51.488;5.462;2022-12-07T03:47:23;6.57;;;5.03;;
75429;SDS011;64127;51.488;5.462;2022-12-07T03:50:13;6.53;;;5.50;;
75429;SDS011;64127;51.488;5.462;2022-12-07T03:53:24;6.23;;;5.30;;
75429;SDS011;64127;51.488;5.462;2022-12-07T03:56:07;6.30;;;4.70;;
75429;SDS011;64127;51.488;5.462;2022-12-07T03:58:41;5.30;;;4.80;;
75429;SDS011;64127;51.488;5.462;2022-12-07T04:01:15;5.83;;;5.20;;
75429;SDS011;64127;51.488;5.462;2022-12-07T04:03:49;5.90;;;4.87;;
75429;SDS011;64127;51.488;5.462;2022-12-07T04:06:21;5.50;;;4.70;;
75429;SDS011;64127;51.488;5.462;2022-12-07T04:08:53;6.20;;;4.90;;
75429;SDS011;64127;51.488;5.462;2022-12-07T04:11:25;5.83;;;5.27;;
75429;SDS011;64127;51.488;5.462;2022-12-07T04:13:56;5.63;;;4.63;;
75429;SDS011;64127;51.488;5.462;2022-12-07T04:16:51;6.70;;;5.10;;
75429;SDS011;64127;51.488;5.462;2022-12-07T04:19:29;5.40;;;4.90;;
75429;SDS011;64127;51.488;5.462;2022-12-07T04:22:04;7.33;;;4.90;;
75429;SDS011;64127;51.488;5.462;2022-12-07T04:24:37;5.70;;;5.03;;
75429;SDS011;64127;51.488;5.462;2022-12-07T04:27:10;8.10;;;5.33;;
75429;SDS011;64127;51.488;5.462;2022-12-07T04:29:42;5.70;;;4.77;;
75429;SDS011;64127;51.488;5.462;2022-12-07T04:32:14;8.80;;;4.93;;
75429;SDS011;64127;51.488;5.462;2022-12-07T04:34:46;6.10;;;4.93;;
75429;SDS011;64127;51.488;5.462;2022-12-07T04:37:25;6.53;;;5.33;;
75429;SDS011;64127;51.488;5.462;2022-12-07T04:39:57;7.37;;;5.13;;
75429;SDS011;64127;51.488;5.462;2022-12-07T04:42:29;5.93;;;4.80;;
75429;SDS011;64127;51.488;5.462;2022-12-07T04:45:01;6.57;;;5.17;;
75429;SDS011;64127;51.488;5.462;2022-12-07T04:47:34;6.93;;;5.53;;
75429;SDS011;64127;51.488;5.462;2022-12-07T04:50:06;6.07;;;5.10;;
75429;SDS011;64127;51.488;5.462;2022-12-07T04:52:40;5.60;;;5.00;;
75429;SDS011;64127;51.488;5.462;2022-12-07T04:55:12;9.53;;;5.90;;
75429;SDS011;64127;51.488;5.462;2022-12-07T04:57:44;10.20;;;5.50;;
75429;SDS011;64127;51.488;5.462;2022-12-07T05:00:16;5.83;;;5.17;;
75429;SDS011;64127;51.488;5.462;2022-12-07T05:02:48;8.77;;;5.43;;
75429;SDS011;64127;51.488;5.462;2022-12-07T05:05:20;6.83;;;5.40;;
75429;SDS011;64127;51.488;5.462;2022-12-07T05:07:53;6.13;;;5.53;;
75429;SDS011;64127;51.488;5.462;2022-12-07T05:10:25;8.13;;;5.13;;
75429;SDS011;64127;51.488;5.462;2022-12-07T05:12:57;7.37;;;5.20;;
75429;SDS011;64127;51.488;5.462;2022-12-07T05:15:29;6.43;;;5.30;;
75429;SDS011;64127;51.488;5.462;2022-12-07T05:18:01;8.13;;;5.57;;
75429;SDS011;64127;51.488;5.462;2022-12-07T05:20:34;9.87;;;5.23;;
75429;SDS011;64127;51.488;5.462;2022-12-07T05:23:12;6.07;;;4.93;;
75429;SDS011;64127;51.488;5.462;2022-12-07T05:25:44;7.43;;;5.20;;
75429;SDS011;64127;51.488;5.462;2022-12-07T05:28:17;5.60;;;5.00;;
75429;SDS011;64127;51.488;5.462;2022-12-07T05:30:49;6.07;;;4.70;;
75429;SDS011;64127;51.488;5.462;2022-12-07T05:33:28;6.23;;;5.03;;
75429;SDS011;64127;51.488;5.462;2022-12-07T05:36:00;7.93;;;5.33;;
75429;SDS011;64127;51.488;5.462;2022-12-07T05:38:36;7.97;;;5.10;;
75429;SDS011;64127;51.488;5.462;2022-12-07T05:41:08;8.27;;;4.90;;
75429;SDS011;64127;51.488;5.462;2022-12-07T05:44:04;8.60;;;4.90;;
75429;SDS011;64127;51.488;5.462;2022-12-07T05:46:36;6.83;;;5.00;;
75429;SDS011;64127;51.488;5.462;2022-12-07T05:49:08;7.03;;;4.80;;
75429;SDS011;64127;51.488;5.462;2022-12-07T05:51:40;4.77;;;4.20;;
75429;SDS011;64127;51.488;5.462;2022-12-07T05:54:12;5.33;;;4.37;;
75429;SDS011;64127;51.488;5.462;2022-12-07T05:56:44;6.80;;;4.43;;
75429;SDS011;64127;51.488;5.462;2022-12-07T05:59:16;7.40;;;4.67;;
75429;SDS011;64127;51.488;5.462;2022-12-07T06:04:47;4.57;;;4.13;;
75429;SDS011;64127;51.488;5.462;2022-12-07T06:07:19;5.33;;;4.30;;
75429;SDS011;64127;51.488;5.462;2022-12-07T06:09:50;5.80;;;4.47;;
75429;SDS011;64127;51.488;5.462;2022-12-07T06:12:23;5.47;;;4.57;;
75429;SDS011;64127;51.488;5.462;2022-12-07T06:15:09;7.10;;;4.40;;
75429;SDS011;64127;51.488;5.462;2022-12-07T06:17:44;7.53;;;4.83;;
75429;SDS011;64127;51.488;5.462;2022-12-07T06:20:16;6.77;;;4.57;;
75429;SDS011;64127;51.488;5.462;2022-12-07T06:22:48;7.33;;;4.33;;
75429;SDS011;64127;51.488;5.462;2022-12-07T06:25:20;5.43;;;3.87;;
75429;SDS011;64127;51.488;5.462;2022-12-07T06:27:52;5.87;;;4.13;;
75429;SDS011;64127;51.488;5.462;2022-12-07T06:30:26;5.80;;;4.40;;
75429;SDS011;64127;51.488;5.462;2022-12-07T06:32:58;8.77;;;4.20;;
75429;SDS011;64127;51.488;5.462;2022-12-07T06:35:31;5.70;;;3.83;;
75429;SDS011;64127;51.488;5.462;2022-12-07T06:38:04;5.77;;;4.17;;
75429;SDS011;64127;51.488;5.462;2022-12-07T06:40:36;5.57;;;4.47;;
75429;SDS011;64127;51.488;5.462;2022-12-07T06:43:08;8.00;;;4.53;;
75429;SDS011;64127;51.488;5.462;2022-12-07T06:45:41;6.23;;;4.93;;
75429;SDS011;64127;51.488;5.462;2022-12-07T06:48:13;8.30;;;5.40;;
75429;SDS011;64127;51.488;5.462;2022-12-07T06:50:45;7.77;;;5.50;;
75429;SDS011;64127;51.488;5.462;2022-12-07T06:53:25;6.73;;;4.73;;
75429;SDS011;64127;51.488;5.462;2022-12-07T06:55:57;7.23;;;4.17;;
75429;SDS011;64127;51.488;5.462;2022-12-07T06:58:29;6.03;;;4.40;;
75429;SDS011;64127;51.488;5.462;2022-12-07T07:01:01;7.70;;;4.40;;
75429;SDS011;64127;51.488;5.462;2022-12-07T07:03:34;5.83;;;4.63;;
75429;SDS011;64127;51.488;5.462;2022-12-07T07:06:06;5.90;;;4.03;;
75429;SDS011;64127;51.488;5.462;2022-12-07T07:08:39;6.73;;;4.07;;
75429;SDS011;64127;51.488;5.462;2022-12-07T07:11:12;5.67;;;4.53;;
75429;SDS011;64127;51.488;5.462;2022-12-07T07:13:44;6.77;;;4.07;;
75429;SDS011;64127;51.488;5.462;2022-12-07T07:16:17;9.77;;;5.00;;
75429;SDS011;64127;51.488;5.462;2022-12-07T07:18:49;6.70;;;4.40;;
75429;SDS011;64127;51.488;5.462;2022-12-07T07:21:21;8.37;;;4.33;;
75429;SDS011;64127;51.488;5.462;2022-12-07T07:23:53;4.47;;;4.03;;
75429;SDS011;64127;51.488;5.462;2022-12-07T07:26:24;8.30;;;4.47;;
75429;SDS011;64127;51.488;5.462;2022-12-07T07:28:56;7.30;;;4.67;;
75429;SDS011;64127;51.488;5.462;2022-12-07T07:31:28;7.07;;;4.20;;
75429;SDS011;64127;51.488;5.462;2022-12-07T07:34:00;6.60;;;4.67;;
75429;SDS011;64127;51.488;5.462;2022-12-07T07:36:32;4.93;;;3.70;;
75429;SDS011;64127;51.488;5.462;2022-12-07T07:39:04;4.67;;;3.97;;
75429;SDS011;64127;51.488;5.462;2022-12-07T07:41:37;4.77;;;4.17;;
75429;SDS011;64127;51.488;5.462;2022-12-07T07:44:09;7.50;;;4.13;;
75429;SDS011;64127;51.488;5.462;2022-12-07T07:46:41;6.07;;;3.77;;
75429;SDS011;64127;51.488;5.462;2022-12-07T07:49:13;6.13;;;4.00;;
75429;SDS011;64127;51.488;5.462;2022-12-07T07:51:45;10.63;;;3.93;;
75429;SDS011;64127;51.488;5.462;2022-12-07T07:54:17;6.37;;;4.00;;
75429;SDS011;64127;51.488;5.462;2022-12-07T07:56:49;7.43;;;4.80;;
75429;SDS011;64127;51.488;5.462;2022-12-07T07:59:21;11.17;;;4.23;;
75429;SDS011;64127;51.488;5.462;2022-12-07T08:01:53;5.77;;;4.30;;
75429;SDS011;64127;51.488;5.462;2022-12-07T08:04:25;7.37;;;4.20;;
75429;SDS011;64127;51.488;5.462;2022-12-07T08:06:57;6.73;;;4.40;;
75429;SDS011;64127;51.488;5.462;2022-12-07T08:09:29;6.50;;;4.27;;
75429;SDS011;64127;51.488;5.462;2022-12-07T08:12:01;4.27;;;3.87;;
75429;SDS011;64127;51.488;5.462;2022-12-07T08:14:33;9.53;;;4.57;;
75429;SDS011;64127;51.488;5.462;2022-12-07T08:17:06;7.37;;;4.37;;
75429;SDS011;64127;51.488;5.462;2022-12-07T08:19:38;8.33;;;4.60;;
75429;SDS011;64127;51.488;5.462;2022-12-07T08:22:10;5.33;;;4.60;;
75429;SDS011;64127;51.488;5.462;2022-12-07T08:24:42;6.37;;;4.40;;
75429;SDS011;64127;51.488;5.462;2022-12-07T08:27:14;8.87;;;4.40;;
75429;SDS011;64127;51.488;5.462;2022-12-07T08:29:46;6.17;;;4.27;;
75429;SDS011;64127;51.488;5.462;2022-12-07T08:32:18;6.80;;;4.53;;
75429;SDS011;64127;51.488;5.462;2022-12-07T08:34:51;6.23;;;4.70;;
75429;SDS011;64127;51.488;5.462;2022-12-07T08:37:23;5.03;;;4.40;;
75429;SDS011;64127;51.488;5.462;2022-12-07T08:39:55;5.70;;;4.03;;
75429;SDS011;64127;51.488;5.462;2022-12-07T08:42:27;6.87;;;4.77;;
75429;SDS011;64127;51.488;5.462;2022-12-07T08:45:01;7.10;;;4.00;;
75429;SDS011;64127;51.488;5.462;2022-12-07T08:47:33;6.23;;;4.67;;
75429;SDS011;64127;51.488;5.462;2022-12-07T08:50:10;6.87;;;4.67;;
75429;SDS011;64127;51.488;5.462;2022-12-07T08:52:43;7.80;;;4.73;;
75429;SDS011;64127;51.488;5.462;2022-12-07T08:55:15;6.53;;;4.20;;
75429;SDS011;64127;51.488;5.462;2022-12-07T08:57:47;8.53;;;5.00;;
75429;SDS011;64127;51.488;5.462;2022-12-07T09:00:19;7.33;;;4.63;;
75429;SDS011;64127;51.488;5.462;2022-12-07T09:02:53;6.70;;;4.20;;
75429;SDS011;64127;51.488;5.462;2022-12-07T09:05:25;5.50;;;4.10;;
75429;SDS011;64127;51.488;5.462;2022-12-07T09:07:59;6.80;;;4.00;;
75429;SDS011;64127;51.488;5.462;2022-12-07T09:10:32;8.63;;;4.40;;
75429;SDS011;64127;51.488;5.462;2022-12-07T09:13:04;6.40;;;4.00;;
75429;SDS011;64127;51.488;5.462;2022-12-07T09:15:36;5.77;;;4.10;;
75429;SDS011;64127;51.488;5.462;2022-12-07T09:18:08;7.03;;;4.30;;
75429;SDS011;64127;51.488;5.462;2022-12-07T09:20:40;7.90;;;4.33;;
75429;SDS011;64127;51.488;5.462;2022-12-07T09:23:12;6.87;;;4.70;;
75429;SDS011;64127;51.488;5.462;2022-12-07T09:25:44;7.13;;;4.93;;
75429;SDS011;64127;51.488;5.462;2022-12-07T09:28:16;6.23;;;4.60;;
75429;SDS011;64127;51.488;5.462;2022-12-07T09:30:49;7.43;;;4.63;;
75429;SDS011;64127;51.488;5.462;2022-12-07T09:33:41;9.70;;;4.70;;
75429;SDS011;64127;51.488;5.462;2022-12-07T09:36:13;7.83;;;4.57;;
75429;SDS011;64127;51.488;5.462;2022-12-07T09:38:45;7.03;;;4.70;;
75429;SDS011;64127;51.488;5.462;2022-12-07T09:41:17;5.53;;;4.70;;
75429;SDS011;64127;51.488;5.462;2022-12-07T09:43:50;7.90;;;5.00;;
75429;SDS011;64127;51.488;5.462;2022-12-07T09:46:24;8.60;;;4.87;;
75429;SDS011;64127;51.488;5.462;2022-12-07T09:48:56;7.93;;;4.63;;
75429;SDS011;64127;51.488;5.462;2022-12-07T09:51:28;7.07;;;4.77;;
75429;SDS011;64127;51.488;5.462;2022-12-07T09:54:01;6.07;;;4.50;;
75429;SDS011;64127;51.488;5.462;2022-12-07T09:56:33;9.97;;;5.10;;
75429;SDS011;64127;51.488;5.462;2022-12-07T09:59:05;8.70;;;4.50;;
75429;SDS011;64127;51.488;5.462;2022-12-07T10:01:40;6.53;;;4.10;;
75429;SDS011;64127;51.488;5.462;2022-12-07T10:04:14;5.93;;;3.87;;
75429;SDS011;64127;51.488;5.462;2022-12-07T10:06:53;5.83;;;3.90;;
75429;SDS011;64127;51.488;5.462;2022-12-07T10:09:25;4.97;;;3.73;;
75429;SDS011;64127;51.488;5.462;2022-12-07T10:12:07;8.40;;;4.63;;
75429;SDS011;64127;51.488;5.462;2022-12-07T10:15:16;8.90;;;4.83;;
75429;SDS011;64127;51.488;5.462;2022-12-07T10:17:41;6.33;;;4.20;;
75429;SDS011;64127;51.488;5.462;2022-12-07T10:20:25;9.80;;;4.30;;
75429;SDS011;64127;51.488;5.462;2022-12-07T10:23:03;6.93;;;3.80;;
75429;SDS011;64127;51.488;5.462;2022-12-07T10:25:45;6.77;;;3.80;;
75429;SDS011;64127;51.488;5.462;2022-12-07T10:28:18;6.37;;;3.53;;
75429;SDS011;64127;51.488;5.462;2022-12-07T10:30:55;7.10;;;3.40;;
75429;SDS011;64127;51.488;5.462;2022-12-07T10:33:35;6.07;;;3.33;;
75429;SDS011;64127;51.488;5.462;2022-12-07T10:37:15;5.33;;;3.00;;
75429;SDS011;64127;51.488;5.462;2022-12-07T10:39:54;5.77;;;3.00;;
75429;SDS011;64127;51.488;5.462;2022-12-07T10:42:29;4.43;;;2.63;;
75429;SDS011;64127;51.488;5.462;2022-12-07T10:47:51;5.60;;;3.00;;
75429;SDS011;64127;51.488;5.462;2022-12-07T10:50:44;3.50;;;2.63;;
75429;SDS011;64127;51.488;5.462;2022-12-07T11:00:22;4.67;;;2.70;;
75429;SDS011;64127;51.488;5.462;2022-12-07T11:09:00;6.10;;;2.57;;
75429;SDS011;64127;51.488;5.462;2022-12-07T11:18:32;9.63;;;2.67;;
75429;SDS011;64127;51.488;5.462;2022-12-07T11:21:31;5.70;;;2.53;;
75429;SDS011;64127;51.488;5.462;2022-12-07T11:24:32;5.13;;;2.53;;
75429;SDS011;64127;51.488;5.462;2022-12-07T11:28:02;4.07;;;2.60;;
75429;SDS011;64127;51.488;5.462;2022-12-07T11:34:37;5.63;;;2.80;;
75429;SDS011;64127;51.488;5.462;2022-12-07T11:45:02;4.67;;;2.60;;
75429;SDS011;64127;51.488;5.462;2022-12-07T11:48:01;6.00;;;2.70;;
75429;SDS011;64127;51.488;5.462;2022-12-07T11:51:00;5.40;;;2.50;;
75429;SDS011;64127;51.488;5.462;2022-12-07T11:53:38;7.23;;;2.97;;
75429;SDS011;64127;51.488;5.462;2022-12-07T11:56:33;4.73;;;2.53;;
75429;SDS011;64127;51.488;5.462;2022-12-07T11:59:15;6.93;;;2.70;;
75429;SDS011;64127;51.488;5.462;2022-12-07T12:02:07;5.10;;;2.63;;
75429;SDS011;64127;51.488;5.462;2022-12-07T12:07:53;5.03;;;2.80;;
75429;SDS011;64127;51.488;5.462;2022-12-07T12:15:08;5.57;;;2.70;;
75429;SDS011;64127;51.488;5.462;2022-12-07T12:17:59;5.67;;;2.70;;
75429;SDS011;64127;51.488;5.462;2022-12-07T12:20:55;3.73;;;2.20;;
75429;SDS011;64127;51.488;5.462;2022-12-07T12:24:00;5.80;;;2.50;;
75429;SDS011;64127;51.488;5.462;2022-12-07T12:26:53;3.27;;;2.17;;
75429;SDS011;64127;51.488;5.462;2022-12-07T12:29:56;3.87;;;2.30;;
75429;SDS011;64127;51.488;5.462;2022-12-07T12:32:36;3.30;;;2.00;;
75429;SDS011;64127;51.488;5.462;2022-12-07T12:35:30;4.30;;;2.40;;
75429;SDS011;64127;51.488;5.462;2022-12-07T12:42:01;2.53;;;1.60;;
75429;SDS011;64127;51.488;5.462;2022-12-07T12:47:37;3.70;;;1.90;;
75429;SDS011;64127;51.488;5.462;2022-12-07T12:50:35;4.90;;;1.90;;
75429;SDS011;64127;51.488;5.462;2022-12-07T12:53:21;4.03;;;1.70;;
75429;SDS011;64127;51.488;5.462;2022-12-07T12:59:32;2.83;;;1.80;;
75429;SDS011;64127;51.488;5.462;2022-12-07T13:08:05;4.67;;;2.07;;
75429;SDS011;64127;51.488;5.462;2022-12-07T13:11:27;4.20;;;1.80;;
75429;SDS011;64127;51.488;5.462;2022-12-07T13:17:55;3.43;;;1.80;;
75429;SDS011;64127;51.488;5.462;2022-12-07T13:20:06;3.43;;;1.73;;
75429;SDS011;64127;51.488;5.462;2022-12-07T13:22:48;5.47;;;1.73;;
75429;SDS011;64127;51.488;5.462;2022-12-07T13:25:30;3.03;;;1.60;;
75429;SDS011;64127;51.488;5.462;2022-12-07T13:28:16;4.90;;;2.00;;
75429;SDS011;64127;51.488;5.462;2022-12-07T13:30:59;4.63;;;2.13;;
75429;SDS011;64127;51.488;5.462;2022-12-07T13:33:45;3.47;;;1.80;;
75429;SDS011;64127;51.488;5.462;2022-12-07T13:38:59;3.97;;;1.90;;
75429;SDS011;64127;51.488;5.462;2022-12-07T13:41:57;3.30;;;1.90;;
75429;SDS011;64127;51.488;5.462;2022-12-07T13:44:33;4.60;;;2.20;;
75429;SDS011;64127;51.488;5.462;2022-12-07T13:49:55;3.63;;;2.13;;
75429;SDS011;64127;51.488;5.462;2022-12-07T13:52:30;4.87;;;2.27;;
75429;SDS011;64127;51.488;5.462;2022-12-07T13:57:38;2.93;;;1.87;;
75429;SDS011;64127;51.488;5.462;2022-12-07T14:00:16;6.77;;;2.30;;
75429;SDS011;64127;51.488;5.462;2022-12-07T14:05:45;3.87;;;2.07;;
75429;SDS011;64127;51.488;5.462;2022-12-07T14:08:33;3.63;;;2.23;;
75429;SDS011;64127;51.488;5.462;2022-12-07T14:11:12;3.70;;;2.00;;
75429;SDS011;64127;51.488;5.462;2022-12-07T14:16:35;4.63;;;2.40;;
75429;SDS011;64127;51.488;5.462;2022-12-07T14:19:38;3.40;;;2.10;;
75429;SDS011;64127;51.488;5.462;2022-12-07T14:22:27;5.00;;;2.10;;
75429;SDS011;64127;51.488;5.462;2022-12-07T14:28:03;4.60;;;1.90;;
75429;SDS011;64127;51.488;5.462;2022-12-07T14:30:35;3.37;;;2.00;;
75429;SDS011;64127;51.488;5.462;2022-12-07T14:33:07;5.00;;;2.10;;
75429;SDS011;64127;51.488;5.462;2022-12-07T14:35:40;4.63;;;2.30;;
75429;SDS011;64127;51.488;5.462;2022-12-07T14:38:13;4.13;;;2.20;;
75429;SDS011;64127;51.488;5.462;2022-12-07T14:40:48;3.83;;;1.87;;
75429;SDS011;64127;51.488;5.462;2022-12-07T14:43:24;4.13;;;2.00;;
75429;SDS011;64127;51.488;5.462;2022-12-07T14:45:56;5.00;;;2.30;;
75429;SDS011;64127;51.488;5.462;2022-12-07T14:48:33;5.33;;;2.13;;
75429;SDS011;64127;51.488;5.462;2022-12-07T14:51:29;4.00;;;2.07;;
75429;SDS011;64127;51.488;5.462;2022-12-07T14:54:29;3.13;;;2.10;;
75429;SDS011;64127;51.488;5.462;2022-12-07T14:57:04;5.93;;;2.60;;
75429;SDS011;64127;51.488;5.462;2022-12-07T14:59:36;5.13;;;2.23;;
75429;SDS011;64127;51.488;5.462;2022-12-07T15:02:15;5.80;;;2.30;;
75429;SDS011;64127;51.488;5.462;2022-12-07T15:04:48;2.97;;;2.13;;
75429;SDS011;64127;51.488;5.462;2022-12-07T15:07:21;4.57;;;2.40;;
75429;SDS011;64127;51.488;5.462;2022-12-07T15:09:54;4.90;;;2.43;;
75429;SDS011;64127;51.488;5.462;2022-12-07T15:12:26;4.27;;;2.13;;
75429;SDS011;64127;51.488;5.462;2022-12-07T15:14:59;3.90;;;2.70;;
75429;SDS011;64127;51.488;5.462;2022-12-07T15:17:33;4.70;;;2.90;;
75429;SDS011;64127;51.488;5.462;2022-12-07T15:20:07;5.20;;;2.60;;
75429;SDS011;64127;51.488;5.462;2022-12-07T15:22:44;3.83;;;2.60;;
75429;SDS011;64127;51.488;5.462;2022-12-07T15:25:18;3.78;;;2.63;;
75429;SDS011;64127;51.488;5.462;2022-12-07T15:27:51;3.23;;;2.10;;
75429;SDS011;64127;51.488;5.462;2022-12-07T15:30:23;3.60;;;2.10;;
75429;SDS011;64127;51.488;5.462;2022-12-07T15:32:55;5.23;;;1.90;;
75429;SDS011;64127;51.488;5.462;2022-12-07T15:35:27;3.03;;;2.00;;
75429;SDS011;64127;51.488;5.462;2022-12-07T15:38:00;2.87;;;2.03;;
75429;SDS011;64127;51.488;5.462;2022-12-07T15:40:40;3.23;;;1.97;;
75429;SDS011;64127;51.488;5.462;2022-12-07T15:43:12;3.73;;;2.20;;
75429;SDS011;64127;51.488;5.462;2022-12-07T15:46:03;2.33;;;2.00;;
75429;SDS011;64127;51.488;5.462;2022-12-07T15:48:36;1.90;;;1.80;;
75429;SDS011;64127;51.488;5.462;2022-12-07T15:51:09;3.10;;;2.30;;
75429;SDS011;64127;51.488;5.462;2022-12-07T15:53:44;3.77;;;1.90;;
75429;SDS011;64127;51.488;5.462;2022-12-07T15:56:16;4.50;;;2.50;;
75429;SDS011;64127;51.488;5.462;2022-12-07T15:58:51;3.27;;;2.20;;
75429;SDS011;64127;51.488;5.462;2022-12-07T16:01:23;2.77;;;2.27;;
75429;SDS011;64127;51.488;5.462;2022-12-07T16:03:56;2.53;;;2.23;;
75429;SDS011;64127;51.488;5.462;2022-12-07T16:06:32;4.33;;;2.63;;
75429;SDS011;64127;51.488;5.462;2022-12-07T16:09:05;3.77;;;2.47;;
75429;SDS011;64127;51.488;5.462;2022-12-07T16:11:38;3.93;;;2.73;;
75429;SDS011;64127;51.488;5.462;2022-12-07T16:14:14;3.80;;;2.43;;
75429;SDS011;64127;51.488;5.462;2022-12-07T16:16:49;6.57;;;3.27;;
75429;SDS011;64127;51.488;5.462;2022-12-07T16:19:23;5.10;;;4.07;;
75429;SDS011;64127;51.488;5.462;2022-12-07T16:22:04;7.13;;;4.87;;
75429;SDS011;64127;51.488;5.462;2022-12-07T16:24:36;7.23;;;3.97;;
75429;SDS011;64127;51.488;5.462;2022-12-07T16:27:08;5.27;;;4.20;;
75429;SDS011;64127;51.488;5.462;2022-12-07T16:29:41;6.17;;;3.90;;
75429;SDS011;64127;51.488;5.462;2022-12-07T16:32:15;6.57;;;4.00;;
75429;SDS011;64127;51.488;5.462;2022-12-07T16:34:48;6.33;;;3.30;;
75429;SDS011;64127;51.488;5.462;2022-12-07T16:37:23;4.73;;;3.37;;
75429;SDS011;64127;51.488;5.462;2022-12-07T16:39:55;5.07;;;3.27;;
75429;SDS011;64127;51.488;5.462;2022-12-07T16:42:33;5.27;;;3.13;;
75429;SDS011;64127;51.488;5.462;2022-12-07T16:45:06;6.10;;;3.73;;
75429;SDS011;64127;51.488;5.462;2022-12-07T16:47:39;4.33;;;3.37;;
75429;SDS011;64127;51.488;5.462;2022-12-07T16:50:12;4.97;;;3.60;;
75429;SDS011;64127;51.488;5.462;2022-12-07T16:52:44;5.67;;;3.63;;
75429;SDS011;64127;51.488;5.462;2022-12-07T16:55:16;5.53;;;3.80;;
75429;SDS011;64127;51.488;5.462;2022-12-07T16:57:48;5.27;;;3.80;;
75429;SDS011;64127;51.488;5.462;2022-12-07T17:00:20;5.63;;;4.17;;
75429;SDS011;64127;51.488;5.462;2022-12-07T17:02:53;5.17;;;3.57;;
75429;SDS011;64127;51.488;5.462;2022-12-07T17:05:26;7.40;;;3.37;;
75429;SDS011;64127;51.488;5.462;2022-12-07T17:08:01;4.93;;;3.90;;
75429;SDS011;64127;51.488;5.462;2022-12-07T17:10:35;3.73;;;3.17;;
75429;SDS011;64127;51.488;5.462;2022-12-07T17:13:10;5.70;;;3.80;;
75429;SDS011;64127;51.488;5.462;2022-12-07T17:16:04;6.73;;;3.33;;
75429;SDS011;64127;51.488;5.462;2022-12-07T17:18:37;3.63;;;3.33;;
75429;SDS011;64127;51.488;5.462;2022-12-07T17:21:12;4.43;;;2.97;;
75429;SDS011;64127;51.488;5.462;2022-12-07T17:23:44;19.00;;;9.90;;
75429;SDS011;64127;51.488;5.462;2022-12-07T17:26:21;10.20;;;5.43;;
75429;SDS011;64127;51.488;5.462;2022-12-07T17:29:03;7.57;;;3.70;;
75429;SDS011;64127;51.488;5.462;2022-12-07T17:31:37;7.87;;;3.57;;
75429;SDS011;64127;51.488;5.462;2022-12-07T17:34:13;4.90;;;3.30;;
75429;SDS011;64127;51.488;5.462;2022-12-07T17:36:46;5.47;;;3.60;;
75429;SDS011;64127;51.488;5.462;2022-12-07T17:39:19;5.27;;;3.83;;
75429;SDS011;64127;51.488;5.462;2022-12-07T17:41:51;4.80;;;3.13;;
75429;SDS011;64127;51.488;5.462;2022-12-07T17:44:41;4.33;;;3.10;;
75429;SDS011;64127;51.488;5.462;2022-12-07T17:47:14;4.00;;;3.20;;
75429;SDS011;64127;51.488;5.462;2022-12-07T17:49:48;4.57;;;3.00;;
75429;SDS011;64127;51.488;5.462;2022-12-07T17:52:20;4.87;;;3.20;;
75429;SDS011;64127;51.488;5.462;2022-12-07T17:55:11;5.40;;;3.30;;
75429;SDS011;64127;51.488;5.462;2022-12-07T17:57:46;5.57;;;3.30;;
75429;SDS011;64127;51.488;5.462;2022-12-07T18:00:19;4.50;;;3.20;;